Porto Di Livorno — IFPU2 — position and weather

sailwx.info

Track history (hours):
 
Tides and Currents Weather Stations Pressure Air Temp Water Temp Dewpoint Dewpoint Depression Visibility Wind Speed Wind Dir Waves Ship Positions

Porto Di Livorno

Last reported at 2014-Oct-20 15:33 UTC. Time now 2014-Oct-20 21:14 UTC.
Position N 43°34' E 010°18'.

Length 24 m; draft 6.1 m.

Type: Tug. MMSI: 247194299.

Date/timePositionNaut miles runAvg speedWind from/ knotsBaromVisibWave heightAir tempDewpointWater temp
2014-Oct-20 15:33N 43°34' E 010°18'0 0.0
2014-Oct-20 14:33N 43°34' E 010°18'1 0.9
2014-Oct-20 13:33N 43°33' E 010°17'1 0.9
2014-Oct-20 12:33N 43°34' E 010°18'0 0.0
2014-Oct-20 11:33N 43°34' E 010°18'0 0.0
2014-Oct-20 10:33N 43°34' E 010°18'0 0.0
2014-Oct-20 09:33N 43°34' E 010°18'1 1.1
2014-Oct-20 08:33N 43°33' E 010°17'1 1.1
2014-Oct-20 07:33N 43°34' E 010°18'0 0.4
2014-Oct-20 06:33N 43°33' E 010°18'0 0.4
2014-Oct-20 05:33N 43°34' E 010°18'0 0.0
2014-Oct-20 04:33N 43°34' E 010°18'0 0.0
2014-Oct-19 15:33N 43°34' E 010°18'0 0.0
2014-Oct-19 14:33N 43°34' E 010°18'0 0.0
2014-Oct-19 13:33N 43°34' E 010°18'0 0.0
2014-Oct-19 12:33N 43°34' E 010°18'0 0.0
2014-Oct-19 11:33N 43°34' E 010°18'0 0.0
2014-Oct-19 10:33N 43°34' E 010°18'0 0.0
2014-Oct-19 09:33N 43°34' E 010°18'0 0.0
2014-Oct-19 08:33N 43°34' E 010°18'0 0.0
2014-Oct-19 07:33N 43°34' E 010°18'1 0.5
2014-Oct-19 06:33N 43°34' E 010°18'1 0.5
2014-Oct-19 05:33N 43°34' E 010°18'0 0.0
2014-Oct-19 04:33N 43°34' E 010°18'0 0.0
2014-Oct-19 03:33N 43°34' E 010°18'0 0.0
2014-Oct-19 02:33N 43°34' E 010°18'0 0.0
2014-Oct-19 01:33N 43°34' E 010°18'0 0.0
2014-Oct-19 00:33N 43°34' E 010°18'0 0.0
2014-Oct-18 23:33N 43°34' E 010°18'0 0.0
2014-Oct-18 22:33N 43°34' E 010°18'0 0.0
2014-Oct-18 21:33N 43°34' E 010°18'0 0.0
2014-Oct-18 20:33N 43°34' E 010°18'0 0.0
2014-Oct-18 19:33N 43°34' E 010°18'0 0.0
2014-Oct-18 18:33N 43°34' E 010°18'1 1.0
2014-Oct-18 17:33N 43°35' E 010°18'1 1.0
2014-Oct-18 16:33N 43°34' E 010°18'0 0.0
2014-Oct-17 15:33N 43°34' E 010°18'0 0.0
2014-Oct-17 14:33N 43°34' E 010°18'0 0.0
2014-Oct-17 13:33N 43°34' E 010°18'0 0.0
2014-Oct-17 12:33N 43°34' E 010°18'0 0.0
2014-Oct-17 11:33N 43°34' E 010°18'1 1.4
2014-Oct-17 10:33N 43°35' E 010°19'1 0.6
2014-Oct-17 09:33N 43°35' E 010°18'2 1.8
2014-Oct-17 08:33N 43°33' E 010°17'0 0.3
2014-Oct-17 07:33N 43°33' E 010°18'0 0.5
2014-Oct-17 06:33N 43°34' E 010°18'1 0.9
2014-Oct-17 05:33N 43°35' E 010°18'3 2.6
2014-Oct-17 04:33N 43°32' E 010°17'2 1.8
2014-Oct-17 03:33N 43°34' E 010°18'0 0.0
2014-Oct-17 02:33N 43°34' E 010°18'1 1.2
2014-Oct-17 01:33N 43°35' E 010°19'1 1.2
2014-Oct-17 00:33N 43°34' E 010°18'0 0.0
2014-Oct-16 23:33N 43°34' E 010°18'0 0.0
2014-Oct-16 22:33N 43°34' E 010°18'0 0.0
2014-Oct-16 21:33N 43°34' E 010°18'0 0.0
2014-Oct-16 20:33N 43°34' E 010°18'1 0.7
2014-Oct-16 19:33N 43°33' E 010°17'0 0.2
2014-Oct-16 18:33N 43°33' E 010°18'1 0.6
2014-Oct-16 17:33N 43°33' E 010°17'1 1.1
2014-Oct-16 16:33N 43°34' E 010°18'0 0.0
2014-Oct-15 15:33N 43°34' E 010°18'0 0.4
2014-Oct-15 14:33N 43°33' E 010°18'3 2.9
2014-Oct-15 13:33N 43°31' E 010°15'4 4.0
2014-Oct-15 12:33N 43°34' E 010°18'2 1.8
2014-Oct-15 11:33N 43°33' E 010°17'1 1.1
2014-Oct-15 10:33N 43°34' E 010°18'0 0.0
2014-Oct-15 09:33N 43°34' E 010°18'0 0.0
2014-Oct-15 08:33N 43°34' E 010°18'0 0.0
2014-Oct-15 07:33N 43°34' E 010°18'1 1.4
2014-Oct-15 06:33N 43°35' E 010°19'1 1.4
2014-Oct-15 05:33N 43°34' E 010°18'0 0.0
2014-Oct-15 04:33N 43°34' E 010°18'0 0.0
2014-Oct-15 03:33N 43°34' E 010°18'0 0.0
2014-Oct-15 02:33N 43°34' E 010°18'0 0.0
2014-Oct-15 01:33N 43°34' E 010°18'0 0.0
2014-Oct-15 00:33N 43°34' E 010°18'0 0.0
2014-Oct-14 23:33N 43°34' E 010°18'1 0.9
2014-Oct-14 22:33N 43°35' E 010°18'1 0.9
2014-Oct-14 21:33N 43°34' E 010°18'0 0.0
2014-Oct-14 20:33N 43°34' E 010°18'0 0.0
2014-Oct-14 19:33N 43°34' E 010°18'0 0.4
2014-Oct-14 18:33N 43°34' E 010°18'0 0.3
2014-Oct-14 17:33N 43°34' E 010°18'1 1.0
2014-Oct-14 16:33N 43°35' E 010°18'1 0.0
2014-Oct-13 15:33N 43°34' E 010°18'0 0.0
2014-Oct-13 14:33N 43°34' E 010°18'0 0.0
2014-Oct-13 13:33N 43°34' E 010°18'0 0.0
2014-Oct-13 12:33N 43°34' E 010°18'0 0.5
2014-Oct-13 11:33N 43°33' E 010°18'1 0.5
2014-Oct-13 10:33N 43°34' E 010°18'0 0.0
2014-Oct-13 09:33N 43°34' E 010°18'0 0.0
2014-Oct-13 08:33N 43°34' E 010°18'0 0.0
2014-Oct-11 16:15N 43°34' E 010°18'1 1.6
2014-Oct-11 15:33N 43°35' E 010°19'1 1.1
2014-Oct-11 14:33N 43°34' E 010°18'0 0.0
2014-Oct-11 13:33N 43°34' E 010°18'0 0.0
2014-Oct-11 12:33N 43°34' E 010°18'0 0.0
2014-Oct-11 11:33N 43°34' E 010°18'0 0.3
2014-Oct-11 10:33N 43°33' E 010°18'0 0.3
2014-Oct-11 09:33N 43°34' E 010°18'0 0.0
2014-Oct-11 08:33N 43°34' E 010°18'0 0.0
2014-Oct-11 07:33N 43°34' E 010°18'0 0.2
2014-Oct-11 06:33N 43°34' E 010°18'0 0.4
2014-Oct-11 05:33N 43°34' E 010°18'1 1.3
2014-Oct-11 04:33N 43°33' E 010°17'1 0.7
2014-Oct-11 03:33N 43°34' E 010°18'0 0.0
2014-Oct-11 02:33N 43°34' E 010°18'0 0.0
2014-Oct-11 01:33N 43°34' E 010°18'0 0.2
2014-Oct-11 00:33N 43°34' E 010°18'1 1.0
2014-Oct-10 23:33N 43°35' E 010°18'1 1.0
2014-Oct-10 22:33N 43°34' E 010°18'0 0.0
2014-Oct-10 21:33N 43°34' E 010°18'0 0.0
2014-Oct-10 20:33N 43°34' E 010°18'0 0.0
2014-Oct-10 19:33N 43°34' E 010°18'0 0.0
2014-Oct-10 18:33N 43°34' E 010°18'0 0.0
2014-Oct-10 17:33N 43°34' E 010°18'1 1.2
2014-Oct-10 16:33N 43°35' E 010°19'  
Track history (hours):
 
Tides and Currents Weather Stations Pressure Air Temp Water Temp Dewpoint Dewpoint Depression Visibility Wind Speed Wind Dir Waves Ship Positions

Porto Di Livorno

Last reported at 2014-Oct-20 15:33 UTC. Time now 2014-Oct-20 21:14 UTC.
Position N 43°34' E 010°18'.

Length 24 m; draft 6.1 m.

Type: Tug. MMSI: 247194299.

Date/timePositionNaut miles runAvg speedWind from/ knotsBaromVisibWave heightAir tempDewpointWater temp
2014-Oct-20 15:33N 43°34' E 010°18'0 0.0
2014-Oct-20 14:33N 43°34' E 010°18'1 0.9
2014-Oct-20 13:33N 43°33' E 010°17'1 0.9
2014-Oct-20 12:33N 43°34' E 010°18'0 0.0
2014-Oct-20 11:33N 43°34' E 010°18'0 0.0
2014-Oct-20 10:33N 43°34' E 010°18'0 0.0
2014-Oct-20 09:33N 43°34' E 010°18'1 1.1
2014-Oct-20 08:33N 43°33' E 010°17'1 1.1
2014-Oct-20 07:33N 43°34' E 010°18'0 0.4
2014-Oct-20 06:33N 43°33' E 010°18'0 0.4
2014-Oct-20 05:33N 43°34' E 010°18'0 0.0
2014-Oct-20 04:33N 43°34' E 010°18'0 0.0
2014-Oct-19 15:33N 43°34' E 010°18'0 0.0
2014-Oct-19 14:33N 43°34' E 010°18'0 0.0
2014-Oct-19 13:33N 43°34' E 010°18'0 0.0
2014-Oct-19 12:33N 43°34' E 010°18'0 0.0
2014-Oct-19 11:33N 43°34' E 010°18'0 0.0
2014-Oct-19 10:33N 43°34' E 010°18'0 0.0
2014-Oct-19 09:33N 43°34' E 010°18'0 0.0
2014-Oct-19 08:33N 43°34' E 010°18'0 0.0
2014-Oct-19 07:33N 43°34' E 010°18'1 0.5
2014-Oct-19 06:33N 43°34' E 010°18'1 0.5
2014-Oct-19 05:33N 43°34' E 010°18'0 0.0
2014-Oct-19 04:33N 43°34' E 010°18'0 0.0
2014-Oct-19 03:33N 43°34' E 010°18'0 0.0
2014-Oct-19 02:33N 43°34' E 010°18'0 0.0
2014-Oct-19 01:33N 43°34' E 010°18'0 0.0
2014-Oct-19 00:33N 43°34' E 010°18'0 0.0
2014-Oct-18 23:33N 43°34' E 010°18'0 0.0
2014-Oct-18 22:33N 43°34' E 010°18'0 0.0
2014-Oct-18 21:33N 43°34' E 010°18'0 0.0
2014-Oct-18 20:33N 43°34' E 010°18'0 0.0
2014-Oct-18 19:33N 43°34' E 010°18'0 0.0
2014-Oct-18 18:33N 43°34' E 010°18'1 1.0
2014-Oct-18 17:33N 43°35' E 010°18'1 1.0
2014-Oct-18 16:33N 43°34' E 010°18'0 0.0
2014-Oct-17 15:33N 43°34' E 010°18'0 0.0
2014-Oct-17 14:33N 43°34' E 010°18'0 0.0
2014-Oct-17 13:33N 43°34' E 010°18'0 0.0
2014-Oct-17 12:33N 43°34' E 010°18'0 0.0
2014-Oct-17 11:33N 43°34' E 010°18'1 1.4
2014-Oct-17 10:33N 43°35' E 010°19'1 0.6
2014-Oct-17 09:33N 43°35' E 010°18'2 1.8
2014-Oct-17 08:33N 43°33' E 010°17'0 0.3
2014-Oct-17 07:33N 43°33' E 010°18'0 0.5
2014-Oct-17 06:33N 43°34' E 010°18'1 0.9
2014-Oct-17 05:33N 43°35' E 010°18'3 2.6
2014-Oct-17 04:33N 43°32' E 010°17'2 1.8
2014-Oct-17 03:33N 43°34' E 010°18'0 0.0
2014-Oct-17 02:33N 43°34' E 010°18'1 1.2
2014-Oct-17 01:33N 43°35' E 010°19'1 1.2
2014-Oct-17 00:33N 43°34' E 010°18'0 0.0
2014-Oct-16 23:33N 43°34' E 010°18'0 0.0
2014-Oct-16 22:33N 43°34' E 010°18'0 0.0
2014-Oct-16 21:33N 43°34' E 010°18'0 0.0
2014-Oct-16 20:33N 43°34' E 010°18'1 0.7
2014-Oct-16 19:33N 43°33' E 010°17'0 0.2
2014-Oct-16 18:33N 43°33' E 010°18'1 0.6
2014-Oct-16 17:33N 43°33' E 010°17'1 1.1
2014-Oct-16 16:33N 43°34' E 010°18'0 0.0
2014-Oct-15 15:33N 43°34' E 010°18'0 0.4
2014-Oct-15 14:33N 43°33' E 010°18'3 2.9
2014-Oct-15 13:33N 43°31' E 010°15'4 4.0
2014-Oct-15 12:33N 43°34' E 010°18'2 1.8
2014-Oct-15 11:33N 43°33' E 010°17'1 1.1
2014-Oct-15 10:33N 43°34' E 010°18'0 0.0
2014-Oct-15 09:33N 43°34' E 010°18'0 0.0
2014-Oct-15 08:33N 43°34' E 010°18'0 0.0
2014-Oct-15 07:33N 43°34' E 010°18'1 1.4
2014-Oct-15 06:33N 43°35' E 010°19'1 1.4
2014-Oct-15 05:33N 43°34' E 010°18'0 0.0
2014-Oct-15 04:33N 43°34' E 010°18'0 0.0
2014-Oct-15 03:33N 43°34' E 010°18'0 0.0
2014-Oct-15 02:33N 43°34' E 010°18'0 0.0
2014-Oct-15 01:33N 43°34' E 010°18'0 0.0
2014-Oct-15 00:33N 43°34' E 010°18'0 0.0
2014-Oct-14 23:33N 43°34' E 010°18'1 0.9
2014-Oct-14 22:33N 43°35' E 010°18'1 0.9
2014-Oct-14 21:33N 43°34' E 010°18'0 0.0
2014-Oct-14 20:33N 43°34' E 010°18'0 0.0
2014-Oct-14 19:33N 43°34' E 010°18'0 0.4
2014-Oct-14 18:33N 43°34' E 010°18'0 0.3
2014-Oct-14 17:33N 43°34' E 010°18'1 1.0
2014-Oct-14 16:33N 43°35' E 010°18'1 0.0
2014-Oct-13 15:33N 43°34' E 010°18'0 0.0
2014-Oct-13 14:33N 43°34' E 010°18'0 0.0
2014-Oct-13 13:33N 43°34' E 010°18'0 0.0
2014-Oct-13 12:33N 43°34' E 010°18'0 0.5
2014-Oct-13 11:33N 43°33' E 010°18'1 0.5
2014-Oct-13 10:33N 43°34' E 010°18'0 0.0
2014-Oct-13 09:33N 43°34' E 010°18'0 0.0
2014-Oct-13 08:33N 43°34' E 010°18'0 0.0
2014-Oct-11 16:15N 43°34' E 010°18'1 1.6
2014-Oct-11 15:33N 43°35' E 010°19'1 1.1
2014-Oct-11 14:33N 43°34' E 010°18'0 0.0
2014-Oct-11 13:33N 43°34' E 010°18'0 0.0
2014-Oct-11 12:33N 43°34' E 010°18'0 0.0
2014-Oct-11 11:33N 43°34' E 010°18'0 0.3
2014-Oct-11 10:33N 43°33' E 010°18'0 0.3
2014-Oct-11 09:33N 43°34' E 010°18'0 0.0
2014-Oct-11 08:33N 43°34' E 010°18'0 0.0
2014-Oct-11 07:33N 43°34' E 010°18'0 0.2
2014-Oct-11 06:33N 43°34' E 010°18'0 0.4
2014-Oct-11 05:33N 43°34' E 010°18'1 1.3
2014-Oct-11 04:33N 43°33' E 010°17'1 0.7
2014-Oct-11 03:33N 43°34' E 010°18'0 0.0
2014-Oct-11 02:33N 43°34' E 010°18'0 0.0
2014-Oct-11 01:33N 43°34' E 010°18'0 0.2
2014-Oct-11 00:33N 43°34' E 010°18'1 1.0
2014-Oct-10 23:33N 43°35' E 010°18'1 1.0
2014-Oct-10 22:33N 43°34' E 010°18'0 0.0
2014-Oct-10 21:33N 43°34' E 010°18'0 0.0
2014-Oct-10 20:33N 43°34' E 010°18'0 0.0
2014-Oct-10 19:33N 43°34' E 010°18'0 0.0
2014-Oct-10 18:33N 43°34' E 010°18'0 0.0
2014-Oct-10 17:33N 43°34' E 010°18'1 1.2
2014-Oct-10 16:33N 43°35' E 010°19'  

Dump ship's entire track history